createdAt,value
2023-04-15T00:01:46.957Z,93508.03
2023-04-15T00:04:13.537Z,93502.69
2023-04-15T00:06:40.075Z,93508.28
2023-04-15T00:09:06.521Z,93504.56
2023-04-15T00:11:33.013Z,93505.66
2023-04-15T00:14:00.702Z,93502.69
2023-04-15T00:16:27.151Z,93513.38
2023-04-15T00:18:53.580Z,93507.28
2023-04-15T00:21:20.054Z,93504.84
2023-04-15T00:23:49.674Z,93513.13
2023-04-15T00:26:16.178Z,93502.75
2023-04-15T00:28:42.573Z,93502.97
2023-04-15T00:31:09.700Z,93496.00
2023-04-15T00:33:36.701Z,93510.16
2023-04-15T00:36:03.653Z,93501.31
2023-04-15T00:38:30.040Z,93507.75
2023-04-15T00:40:56.574Z,93501.31
2023-04-15T00:43:23.010Z,93498.06
2023-04-15T00:45:50.060Z,93505.84
2023-04-15T00:48:16.566Z,93501.25
2023-04-15T00:50:42.968Z,93500.97
2023-04-15T00:53:09.406Z,93490.28
2023-04-15T00:55:36.146Z,93485.19
2023-04-15T00:58:02.563Z,93492.66
2023-04-15T01:00:30.324Z,93490.50
2023-04-15T01:02:57.024Z,93491.31
2023-04-15T01:05:23.580Z,93489.69
2023-04-15T01:07:50.066Z,93486.78
2023-04-15T01:10:16.512Z,93488.91
2023-04-15T01:12:43.205Z,93492.34
2023-04-15T01:15:10.936Z,93487.19
2023-04-15T01:17:37.481Z,93495.22
2023-04-15T01:20:05.164Z,93486.03
2023-04-15T01:22:31.580Z,93493.47
2023-04-15T01:25:09.549Z,93487.91
2023-04-15T01:27:36.416Z,93493.00
2023-04-15T01:30:05.191Z,93494.06
2023-04-15T01:32:31.823Z,93494.03
2023-04-15T01:34:58.287Z,93482.78
2023-04-15T01:37:24.832Z,93495.44
2023-04-15T01:39:51.561Z,93492.19
2023-04-15T01:42:17.966Z,93499.72
2023-04-15T01:44:44.399Z,93496.25
2023-04-15T01:47:10.839Z,93496.25
2023-04-15T01:49:37.453Z,93495.13
2023-04-15T01:52:03.913Z,93480.47
2023-04-15T01:54:30.641Z,93494.63
2023-04-15T01:56:57.064Z,93491.38
2023-04-15T01:59:23.505Z,93490.91
2023-04-15T02:01:49.924Z,93485.81
2023-04-15T02:04:16.810Z,93499.19
2023-04-15T02:06:43.775Z,93485.03
2023-04-15T02:09:10.514Z,93490.69
2023-04-15T02:11:37.530Z,93490.97
2023-04-15T02:14:07.078Z,93496.84
2023-04-15T02:16:33.890Z,93493.63
2023-04-15T02:19:00.922Z,93488.00
2023-04-15T02:21:27.628Z,93491.75
2023-04-15T02:23:54.189Z,93497.34
2023-04-15T02:26:20.677Z,93485.03
2023-04-15T02:28:47.186Z,93480.50
2023-04-15T02:31:13.590Z,93486.66
2023-04-15T02:33:40.078Z,93476.41
2023-04-15T02:36:07.809Z,93479.13
2023-04-15T02:38:34.210Z,93484.78
2023-04-15T02:41:00.637Z,93490.69
2023-04-15T02:43:27.115Z,93477.78
2023-04-15T02:45:53.717Z,93485.03
2023-04-15T02:48:20.516Z,93493.31
2023-04-15T02:50:47.765Z,93490.09
2023-04-15T02:53:14.611Z,93489.56
2023-04-15T02:55:41.572Z,93491.97
2023-04-15T02:58:08.015Z,93491.38
2023-04-15T03:00:34.779Z,93492.13
2023-04-15T03:03:03.336Z,93491.59
2023-04-15T03:05:29.926Z,93506.56
2023-04-15T03:07:56.329Z,93507.63
2023-04-15T03:10:22.820Z,93502.25
2023-04-15T03:12:49.354Z,93505.69
2023-04-15T03:15:16.498Z,93500.59
2023-04-15T03:17:42.937Z,93501.69
2023-04-15T03:20:10.268Z,93497.66
2023-04-15T03:22:36.681Z,93496.03
2023-04-15T03:25:03.131Z,93494.94
2023-04-15T03:27:29.532Z,93496.81
2023-04-15T03:29:56.740Z,93496.25
2023-04-15T03:32:23.214Z,93493.59
2023-04-15T03:34:49.673Z,93490.91
2023-04-15T03:37:16.424Z,93487.72
2023-04-15T03:39:42.973Z,93489.09
2023-04-15T03:42:09.502Z,93482.63
2023-04-15T03:44:36.095Z,93484.75
2023-04-15T03:47:02.510Z,93479.00
2023-04-15T03:49:28.966Z,93489.75
2023-04-15T03:51:55.735Z,93493.19
2023-04-15T03:54:22.161Z,93484.91
2023-04-15T03:56:48.596Z,93481.69
2023-04-15T03:59:15.008Z,93479.75
2023-04-15T04:01:41.470Z,93483.81
2023-04-15T04:04:08.002Z,93480.56
2023-04-15T04:06:34.477Z,93485.06
2023-04-15T04:09:01.782Z,93475.72
2023-04-15T04:11:28.337Z,93483.19
2023-04-15T04:13:54.727Z,93489.34
2023-04-15T04:16:21.249Z,93488.34
2023-04-15T04:18:47.767Z,93491.06
2023-04-15T04:21:14.167Z,93485.72
2023-04-15T04:23:40.650Z,93484.66
2023-04-15T04:26:07.290Z,93482.53
2023-04-15T04:28:35.107Z,93489.50
2023-04-15T04:31:01.681Z,93490.44
2023-04-15T04:33:28.099Z,93488.41
2023-04-15T04:35:54.499Z,93484.69
2023-04-15T04:38:20.962Z,93490.28
2023-04-15T04:40:47.367Z,93480.94
2023-04-15T04:43:14.788Z,93485.19
2023-04-15T04:45:41.257Z,93480.91
2023-04-15T04:48:08.667Z,93504.78
2023-04-15T04:50:35.293Z,93498.28
2023-04-15T04:53:01.841Z,93493.50
2023-04-15T04:55:28.311Z,93495.69
2023-04-15T04:57:54.726Z,93495.06
2023-04-15T05:00:21.277Z,93494.56
2023-04-15T05:02:47.841Z,93492.66
2023-04-15T05:05:14.509Z,93490.59
2023-04-15T05:07:41.060Z,93494.56
2023-04-15T05:10:08.109Z,93489.81
2023-04-15T05:12:34.591Z,93491.88
2023-04-15T05:15:01.037Z,93495.53
2023-04-15T05:17:27.647Z,93499.81
2023-04-15T05:19:54.167Z,93495.03
2023-04-15T05:22:20.589Z,93493.72
2023-04-15T05:24:46.991Z,93498.84
2023-04-15T05:27:13.531Z,93502.03
2023-04-15T05:29:39.953Z,93503.34
2023-04-15T05:32:06.637Z,93501.72
2023-04-15T05:34:33.051Z,93498.53
2023-04-15T05:36:59.469Z,93497.13
2023-04-15T05:39:26.515Z,93496.88
2023-04-15T05:41:53.191Z,93502.78
2023-04-15T05:44:19.580Z,93510.28
2023-04-15T05:46:46.002Z,93497.50
2023-04-15T05:49:12.447Z,93495.94
2023-04-15T05:51:38.851Z,93493.50
2023-04-15T05:54:05.668Z,93503.22
2023-04-15T05:56:32.324Z,93493.31
2023-04-15T05:58:58.842Z,93494.25
2023-04-15T06:01:26.036Z,93482.41
2023-04-15T06:03:52.531Z,93484.91
2023-04-15T06:06:19.077Z,93485.72
2023-04-15T06:08:46.180Z,93496.38
2023-04-15T06:11:12.614Z,93490.19
2023-04-15T06:13:38.999Z,93483.19
2023-04-15T06:16:05.628Z,93489.69
2023-04-15T06:18:32.077Z,93488.69
2023-04-15T06:20:58.466Z,93490.41
2023-04-15T06:23:26.413Z,93490.19
2023-04-15T06:25:54.000Z,93496.81
2023-04-15T06:28:20.433Z,93476.25
2023-04-15T06:30:46.841Z,93477.94
2023-04-15T06:33:13.306Z,93474.94
2023-04-15T06:35:40.427Z,93486.81
2023-04-15T06:38:07.034Z,93482.63
2023-04-15T06:40:33.479Z,93483.69
2023-04-15T06:42:59.908Z,93478.28
2023-04-15T06:45:26.523Z,93479.41
2023-04-15T06:47:53.022Z,93487.66
2023-04-15T06:50:19.473Z,93484.53
2023-04-15T06:52:46.004Z,93489.59
2023-04-15T06:55:12.586Z,93490.72
2023-04-15T06:57:39.002Z,93485.69
2023-04-15T07:00:05.965Z,93485.97
2023-04-15T07:02:32.577Z,93493.19
2023-04-15T07:04:59.047Z,93488.38
2023-04-15T07:07:25.606Z,93480.34
2023-04-15T07:09:53.622Z,93483.03
2023-04-15T07:12:20.306Z,93485.44
2023-04-15T07:14:46.741Z,93477.72
2023-04-15T07:17:13.347Z,93474.53
2023-04-15T07:19:39.907Z,93466.78
2023-04-15T07:22:06.359Z,93469.50
2023-04-15T07:24:32.780Z,93472.16
2023-04-15T07:27:00.875Z,93469.28
2023-04-15T07:29:27.748Z,93473.09
2023-04-15T07:31:55.217Z,93470.97
2023-04-15T07:34:31.485Z,93454.41
2023-04-15T07:37:02.332Z,93443.97
2023-04-15T07:39:32.680Z,93453.63
2023-04-15T07:42:02.548Z,93471.97
2023-04-15T07:44:31.394Z,93469.53
2023-04-15T07:47:01.477Z,93471.09
2023-04-15T07:49:31.842Z,93442.16
2023-04-15T07:52:01.115Z,93459.63
2023-04-15T07:54:28.107Z,93468.31
2023-04-15T07:56:57.783Z,93457.81
2023-04-15T07:59:25.772Z,93455.13
2023-04-15T08:01:55.875Z,93471.81
2023-04-15T08:04:25.983Z,93463.78
2023-04-15T08:06:58.806Z,93474.06
2023-04-15T08:09:26.631Z,93483.22
2023-04-15T08:11:53.619Z,93481.34
2023-04-15T08:14:25.869Z,93467.66
2023-04-15T08:16:55.186Z,93474.69
2023-04-15T08:19:21.850Z,93475.78
2023-04-15T08:21:48.901Z,93478.47
2023-04-15T08:24:15.686Z,93484.13
2023-04-15T08:26:42.988Z,93490.56
2023-04-15T08:29:12.832Z,93487.03
2023-04-15T08:31:44.982Z,93481.69
2023-04-15T08:34:12.953Z,93502.91
2023-04-15T08:36:42.931Z,93516.03
2023-04-15T08:39:18.123Z,93517.66
2023-04-15T08:41:55.076Z,93521.69
2023-04-15T08:44:26.243Z,93503.69
2023-04-15T08:46:56.835Z,93522.72
2023-04-15T08:49:29.590Z,93509.84
2023-04-15T08:54:31.732Z,93504.72
2023-04-15T08:57:02.758Z,93509.53
2023-04-15T08:59:40.699Z,93519.19
2023-04-15T09:02:15.557Z,93532.09
2023-04-15T09:04:45.593Z,93512.50
2023-04-15T09:07:17.913Z,93527.56
2023-04-15T09:09:53.968Z,93519.78
2023-04-15T09:12:23.835Z,93539.34
2023-04-15T09:14:53.833Z,93528.88
2023-04-15T09:17:21.621Z,93545.81
2023-04-15T09:19:51.283Z,93546.09
2023-04-15T09:22:17.786Z,93541.25
2023-04-15T09:24:44.479Z,93550.94
2023-04-15T09:27:11.344Z,93553.09
2023-04-15T09:29:37.757Z,93549.63
2023-04-15T09:32:13.928Z,93555.00
2023-04-15T09:34:40.583Z,93553.38
2023-04-15T09:37:08.089Z,93562.47
2023-04-15T09:40:02.664Z,93561.69
2023-04-15T09:42:29.145Z,93561.16
2023-04-15T09:44:55.916Z,93567.31
2023-04-15T09:47:32.051Z,93566.81
2023-04-15T09:49:59.286Z,93573.78
2023-04-15T09:52:26.007Z,93578.09
2023-04-15T09:54:53.539Z,93581.56
2023-04-15T09:57:19.974Z,93579.66
2023-04-15T09:59:46.374Z,93583.94
2023-04-15T10:02:12.822Z,93587.41
2023-04-15T10:04:40.570Z,93595.72
2023-04-15T10:07:08.577Z,93592.28
2023-04-15T10:09:36.118Z,93593.88
2023-04-15T10:12:04.154Z,93597.16
2023-04-15T10:14:33.376Z,93601.97
2023-04-15T10:17:01.623Z,93597.13
2023-04-15T10:19:28.023Z,93598.44
2023-04-15T10:21:54.766Z,93602.22
2023-04-15T10:24:21.199Z,93601.13
2023-04-15T10:26:47.591Z,93603.59
2023-04-15T10:29:14.125Z,93601.97
2023-04-15T10:31:40.559Z,93604.16
2023-04-15T10:34:07.155Z,93604.72
2023-04-15T10:36:33.850Z,93603.13
2023-04-15T10:39:00.233Z,93612.50
2023-04-15T10:41:31.013Z,93609.03
2023-04-15T10:44:01.751Z,93615.50
2023-04-15T10:46:39.998Z,93619.78
2023-04-15T10:49:16.927Z,93619.81
2023-04-15T10:51:48.019Z,93613.91
2023-04-15T10:54:14.867Z,93624.91
2023-04-15T10:56:48.661Z,93626.25
2023-04-15T10:59:16.224Z,93628.69
2023-04-15T11:01:57.053Z,93627.63
2023-04-15T11:04:51.259Z,93638.63
2023-04-15T11:07:39.511Z,93638.63
2023-04-15T11:10:18.513Z,93650.97
2023-04-15T11:12:45.391Z,93648.84
2023-04-15T11:15:25.263Z,93648.00
2023-04-15T11:17:51.916Z,93650.91
2023-04-15T11:20:18.521Z,93645.53
2023-04-15T11:22:48.891Z,93654.69
2023-04-15T11:25:26.069Z,93660.09
2023-04-15T11:27:54.117Z,93659.28
2023-04-15T11:30:25.091Z,93659.28
2023-04-15T11:32:52.538Z,93663.63
2023-04-15T11:35:19.014Z,93662.78
2023-04-15T11:37:45.953Z,93676.50
2023-04-15T11:40:13.109Z,93666.28
2023-04-15T11:42:49.257Z,93670.84
2023-04-15T11:45:16.529Z,93672.19
2023-04-15T11:47:43.016Z,93680.81
2023-04-15T11:50:22.322Z,93680.00
2023-04-15T11:52:59.016Z,93678.41
2023-04-15T11:55:25.622Z,93689.41
2023-04-15T11:58:30.615Z,93683.78
2023-04-15T12:00:57.897Z,93692.38
2023-04-15T12:03:28.946Z,93695.59
2023-04-15T12:06:21.194Z,93702.59
2023-04-15T12:09:06.658Z,93709.56
2023-04-15T12:11:37.963Z,93717.88
2023-04-15T12:14:22.878Z,93721.63
2023-04-15T12:16:58.381Z,93728.91
2023-04-15T12:19:26.840Z,93732.69
2023-04-15T12:21:58.862Z,93731.03
2023-04-15T12:24:26.638Z,93743.66
2023-04-15T12:26:54.740Z,93749.03
2023-04-15T12:29:24.733Z,93749.56
2023-04-15T12:32:04.819Z,93745.81
2023-04-15T12:34:36.663Z,93747.44
2023-04-15T12:37:04.135Z,93755.44
2023-04-15T12:39:32.395Z,93756.72
2023-04-15T12:42:00.065Z,93767.94
2023-04-15T12:44:27.093Z,93770.56
2023-04-15T12:52:58.066Z,93764.47
2023-04-15T12:55:36.731Z,93786.78
2023-04-15T12:58:03.732Z,93780.50
2023-04-15T13:06:14.607Z,93778.84
2023-04-15T13:08:58.351Z,93801.13
2023-04-15T13:11:50.916Z,93794.22
2023-04-15T13:17:12.340Z,93810.69
2023-04-15T13:19:55.192Z,93808.63
2023-04-15T13:22:44.224Z,93817.56
2023-04-15T13:25:32.201Z,93817.03
2023-04-15T13:36:26.611Z,93831.09
2023-04-15T13:41:40.950Z,93831.38
2023-04-15T13:44:38.321Z,93846.16
2023-04-15T13:47:16.962Z,93852.88
2023-04-15T13:50:07.580Z,93861.78
2023-04-15T13:52:40.806Z,93850.50
2023-04-15T13:55:23.751Z,93867.97
2023-04-15T13:58:12.349Z,93885.50
2023-04-15T14:00:38.793Z,93887.59
2023-04-15T14:03:05.994Z,93891.31
2023-04-15T14:05:38.796Z,93866.53
2023-04-15T14:08:09.143Z,93867.59
2023-04-15T14:10:35.638Z,93886.94
2023-04-15T14:13:02.052Z,93892.41
2023-04-15T14:15:28.516Z,93898.81
2023-04-15T14:23:11.872Z,93907.06
2023-04-15T14:42:02.144Z,93925.31
2023-04-15T15:05:54.526Z,93994.03
2023-04-15T15:11:10.111Z,93973.06
2023-04-15T15:13:39.992Z,93993.22
2023-04-15T15:16:06.665Z,94006.22
2023-04-15T15:18:33.119Z,94004.94
2023-04-15T15:20:59.529Z,94012.66
2023-04-15T15:23:25.936Z,94015.34
2023-04-15T15:25:52.349Z,94021.91
2023-04-15T15:28:18.803Z,94028.19
2023-04-15T15:30:45.282Z,94030.56
2023-04-15T15:33:11.718Z,94032.75
2023-04-15T15:35:38.135Z,94034.75
2023-04-15T15:38:04.599Z,94032.31
2023-04-15T15:40:31.395Z,94041.38
2023-04-15T15:42:57.818Z,94039.69
2023-04-15T15:45:24.254Z,94037.06
2023-04-15T15:47:50.729Z,94048.09
2023-04-15T15:50:17.213Z,94057.63
2023-04-15T15:52:43.648Z,94058.44
2023-04-15T15:55:10.153Z,94074.25
2023-04-15T15:57:36.600Z,94065.72
2023-04-15T16:02:59.886Z,94067.94
2023-04-15T16:05:19.370Z,94087.81
2023-04-15T16:07:45.902Z,94083.06
2023-04-15T16:10:13.982Z,94096.50
2023-04-15T16:12:41.330Z,94088.78
2023-04-15T16:15:09.471Z,94100.50
2023-04-15T16:17:35.966Z,94103.44
2023-04-15T16:20:05.364Z,94116.41
2023-04-15T16:22:33.059Z,94114.56
2023-04-15T16:25:00.541Z,94122.09
2023-04-15T16:30:17.438Z,94123.97
2023-04-15T16:32:43.883Z,94130.56
2023-04-15T16:35:11.487Z,94134.88
2023-04-15T16:37:37.896Z,94139.66
2023-04-15T16:40:05.001Z,94133.00
2023-04-15T16:42:31.471Z,94143.22
2023-04-15T16:44:57.952Z,94143.06
2023-04-15T16:47:24.475Z,94138.75
2023-04-15T16:49:51.036Z,94152.16
2023-04-15T16:52:17.804Z,94156.69
2023-04-15T16:54:44.248Z,94151.66
2023-04-15T16:57:10.744Z,94155.38
2023-04-15T16:59:37.737Z,94157.97
2023-04-15T17:02:04.173Z,94163.66
2023-04-15T17:04:30.680Z,94157.41
2023-04-15T17:06:57.216Z,94155.59
2023-04-15T17:09:23.615Z,94157.53
2023-04-15T17:11:50.056Z,94162.41
2023-04-15T17:14:16.478Z,94160.78
2023-04-15T17:16:43.159Z,94176.28
2023-04-15T17:19:09.617Z,94185.03
2023-04-15T17:21:36.047Z,94191.44
2023-04-15T17:24:02.438Z,94186.59
2023-04-15T17:26:28.830Z,94204.16
2023-04-15T17:28:55.262Z,94200.97
2023-04-15T17:31:21.718Z,94196.41
2023-04-15T17:33:56.411Z,94213.78
2023-04-15T17:36:32.604Z,94212.72
2023-04-15T17:38:59.030Z,94219.94
2023-04-15T17:41:25.553Z,94220.25
2023-04-15T17:43:51.970Z,94228.09
2023-04-15T17:46:19.319Z,94228.91
2023-04-15T17:48:46.321Z,94239.25
2023-04-15T17:51:13.205Z,94252.28
2023-04-15T17:53:39.601Z,94253.50
2023-04-15T17:56:06.027Z,94256.84
2023-04-15T17:58:32.424Z,94268.59
2023-04-15T18:00:58.863Z,94261.72
2023-04-15T18:03:26.251Z,94268.13
2023-04-15T18:05:52.879Z,94269.56
2023-04-15T18:08:19.668Z,94275.94
2023-04-15T18:10:46.144Z,94279.31
2023-04-15T18:13:12.628Z,94281.19
2023-04-15T18:15:39.088Z,94280.63
2023-04-15T18:18:05.639Z,94277.72
2023-04-15T18:20:33.430Z,94280.63
2023-04-15T18:22:59.860Z,94285.75
2023-04-15T18:25:26.324Z,94282.63
2023-04-15T18:27:53.063Z,94302.03
2023-04-15T18:30:19.462Z,94312.97
2023-04-15T18:32:46.205Z,94295.66
2023-04-15T18:35:13.006Z,94312.38
2023-04-15T18:37:39.458Z,94322.41
2023-04-15T18:40:07.176Z,94319.13
2023-04-15T18:42:33.805Z,94308.09
2023-04-15T18:45:00.414Z,94323.41
2023-04-15T18:47:27.444Z,94326.66
2023-04-15T18:49:55.059Z,94335.38
2023-04-15T18:52:23.162Z,94343.03
2023-04-15T18:54:49.655Z,94352.44
2023-04-15T18:57:23.772Z,94366.50
2023-04-15T18:59:57.778Z,94377.38
2023-04-15T19:02:24.633Z,94374.59
2023-04-15T19:04:51.096Z,94370.59
2023-04-15T19:07:17.806Z,94376.50
2023-04-15T19:09:44.877Z,94378.13
2023-04-15T19:12:11.311Z,94386.81
2023-04-15T19:14:37.729Z,94392.16
2023-04-15T19:17:05.862Z,94377.00
2023-04-15T19:19:32.493Z,94377.53
2023-04-15T19:22:01.975Z,94386.53
2023-04-15T19:24:29.785Z,94388.88
2023-04-15T19:26:57.943Z,94380.13
2023-04-15T19:29:24.642Z,94388.50
2023-04-15T19:31:51.094Z,94391.31
2023-04-15T19:34:17.528Z,94375.84
2023-04-15T19:36:44.075Z,94387.69
2023-04-15T19:39:10.501Z,94385.25
2023-04-15T19:41:38.551Z,94393.16
2023-04-15T19:44:05.601Z,94377.41
2023-04-15T19:46:32.156Z,94387.78
2023-04-15T19:48:59.353Z,94407.44
2023-04-15T19:51:26.794Z,94405.00
2023-04-15T19:53:53.966Z,94398.75
2023-04-15T19:56:21.226Z,94418.22
2023-04-15T19:58:52.583Z,94416.72
2023-04-15T20:01:20.210Z,94423.81
2023-04-15T20:03:46.870Z,94415.09
2023-04-15T20:06:14.392Z,94403.53
2023-04-15T20:08:40.967Z,94421.69
2023-04-15T20:11:08.720Z,94422.56
2023-04-15T20:13:35.133Z,94411.53
2023-04-15T20:16:02.479Z,94427.69
2023-04-15T20:18:28.998Z,94419.91
2023-04-15T20:20:55.402Z,94423.97
2023-04-15T20:23:21.826Z,94431.16
2023-04-15T20:25:48.236Z,94439.75
2023-04-15T20:28:15.856Z,94443.25
2023-04-15T20:30:43.271Z,94438.72
2023-04-15T20:33:09.746Z,94446.72
2023-04-15T20:35:36.523Z,94442.38
2023-04-15T20:38:04.322Z,94442.00
2023-04-15T20:40:33.476Z,94445.50
2023-04-15T20:43:00.222Z,94438.88
2023-04-15T20:45:27.914Z,94429.53
2023-04-15T20:47:55.934Z,94436.72
2023-04-15T20:50:22.404Z,94426.50
2023-04-15T20:52:48.847Z,94439.19
2023-04-15T20:55:15.301Z,94438.53
2023-04-15T20:57:41.704Z,94417.59
2023-04-15T21:00:10.754Z,94444.59
2023-04-15T21:02:37.675Z,94445.41
2023-04-15T21:05:04.511Z,94450.03
2023-04-15T21:07:30.953Z,94444.00
2023-04-15T21:09:57.378Z,94440.81
2023-04-15T21:12:23.785Z,94455.50
2023-04-15T21:14:50.309Z,94464.78
2023-04-15T21:17:16.727Z,94469.06
2023-04-15T21:19:43.201Z,94476.19
2023-04-15T21:22:09.601Z,94477.44
2023-04-15T21:24:36.818Z,94489.13
2023-04-15T21:27:03.331Z,94494.06
2023-04-15T21:29:29.727Z,94489.31
2023-04-15T21:31:56.209Z,94503.22
2023-04-15T21:34:22.662Z,94504.97
2023-04-15T21:36:49.082Z,94514.44
2023-04-15T21:39:15.524Z,94518.22
2023-04-15T21:41:42.122Z,94516.72
2023-04-15T21:44:08.605Z,94507.06
2023-04-15T21:46:35.545Z,94495.34
2023-04-15T21:49:02.894Z,94502.25
2023-04-15T21:51:29.378Z,94486.72
2023-04-15T21:53:55.944Z,94511.94
2023-04-15T21:56:24.004Z,94507.72
2023-04-15T21:58:51.028Z,94507.13
2023-04-15T22:01:17.541Z,94504.47
2023-04-15T22:03:44.298Z,94495.25
2023-04-15T22:06:11.075Z,94506.16
2023-04-15T22:08:48.280Z,94509.84
2023-04-15T22:11:30.114Z,94504.88
2023-04-15T22:13:57.237Z,94507.88
2023-04-15T22:16:25.500Z,94508.22
2023-04-15T22:18:52.188Z,94507.28
2023-04-15T22:21:18.589Z,94515.34
2023-04-15T22:23:47.156Z,94519.44
2023-04-15T22:26:13.586Z,94511.44
2023-04-15T22:28:40.008Z,94509.59
2023-04-15T22:31:06.501Z,94512.38
2023-04-15T22:33:33.703Z,94505.47
2023-04-15T22:36:00.141Z,94510.22
2023-04-15T22:38:26.692Z,94511.66
2023-04-15T22:40:53.910Z,94520.19
2023-04-15T22:43:20.377Z,94522.25
2023-04-15T22:45:50.495Z,94521.06
2023-04-15T22:48:17.936Z,94521.00
2023-04-15T22:50:44.401Z,94527.16
2023-04-15T22:53:10.864Z,94528.13
2023-04-15T22:55:37.295Z,94526.28
2023-04-15T22:58:03.747Z,94526.44
2023-04-15T23:00:30.250Z,94527.25
2023-04-15T23:02:56.732Z,94529.34
2023-04-15T23:05:23.389Z,94539.53
2023-04-15T23:07:49.870Z,94531.09
2023-04-15T23:10:16.362Z,94534.47
2023-04-15T23:12:42.792Z,94544.56
2023-04-15T23:15:09.446Z,94536.53
2023-04-15T23:17:35.881Z,94534.72
2023-04-15T23:20:02.649Z,94522.03
2023-04-15T23:22:29.062Z,94536.97
2023-04-15T23:24:55.478Z,94540.03
2023-04-15T23:27:22.750Z,94537.34
2023-04-15T23:29:49.151Z,94540.38
2023-04-15T23:32:15.548Z,94536.38
2023-04-15T23:34:42.053Z,94537.59
2023-04-15T23:37:08.469Z,94547.69
2023-04-15T23:39:34.875Z,94549.84
2023-04-15T23:42:01.674Z,94554.94
2023-04-15T23:44:28.213Z,94549.09
2023-04-15T23:46:54.690Z,94539.31
2023-04-15T23:49:21.198Z,94562.41
2023-04-15T23:51:47.619Z,94556.88
2023-04-15T23:54:14.643Z,94559.88
2023-04-15T23:56:41.036Z,94556.31
2023-04-15T23:59:34.093Z,94563.06
